sensor_id;sensor_type;location;lat;lon;timestamp;temperature;humidity
46562;DHT22;32289;42.688;23.330;2023-06-26T00:00:42;20.00;99.90
46562;DHT22;32289;42.688;23.330;2023-06-26T00:04:22;20.10;99.90
46562;DHT22;32289;42.688;23.330;2023-06-26T00:08:03;20.10;99.90
46562;DHT22;32289;42.688;23.330;2023-06-26T00:11:44;20.20;99.90
46562;DHT22;32289;42.688;23.330;2023-06-26T00:15:25;20.10;99.90
46562;DHT22;32289;42.688;23.330;2023-06-26T00:19:06;20.00;99.90
46562;DHT22;32289;42.688;23.330;2023-06-26T00:22:46;20.00;99.90
46562;DHT22;32289;42.688;23.330;2023-06-26T00:26:27;19.80;99.90
46562;DHT22;32289;42.688;23.330;2023-06-26T00:30:08;19.80;99.90
46562;DHT22;32289;42.688;23.330;2023-06-26T00:33:49;19.80;99.90
46562;DHT22;32289;42.688;23.330;2023-06-26T00:37:30;19.90;99.90
46562;DHT22;32289;42.688;23.330;2023-06-26T00:41:11;19.90;99.90
46562;DHT22;32289;42.688;23.330;2023-06-26T00:44:53;19.90;99.90
46562;DHT22;32289;42.688;23.330;2023-06-26T00:48:33;19.80;99.90
46562;DHT22;32289;42.688;23.330;2023-06-26T00:52:14;19.80;99.90
46562;DHT22;32289;42.688;23.330;2023-06-26T00:55:55;19.80;99.90
46562;DHT22;32289;42.688;23.330;2023-06-26T00:59:36;19.90;99.90
46562;DHT22;32289;42.688;23.330;2023-06-26T01:03:16;19.70;99.90
46562;DHT22;32289;42.688;23.330;2023-06-26T01:06:57;19.70;99.90
46562;DHT22;32289;42.688;23.330;2023-06-26T01:10:39;19.70;99.90
46562;DHT22;32289;42.688;23.330;2023-06-26T01:14:20;19.70;99.90
46562;DHT22;32289;42.688;23.330;2023-06-26T01:18:01;19.60;99.90
46562;DHT22;32289;42.688;23.330;2023-06-26T01:21:44;19.50;99.90
46562;DHT22;32289;42.688;23.330;2023-06-26T01:25:51;19.50;99.90
46562;DHT22;32289;42.688;23.330;2023-06-26T01:29:36;19.40;99.90
46562;DHT22;32289;42.688;23.330;2023-06-26T01:33:17;19.40;99.90
46562;DHT22;32289;42.688;23.330;2023-06-26T01:36:58;19.30;99.90
46562;DHT22;32289;42.688;23.330;2023-06-26T01:40:39;19.30;99.90
46562;DHT22;32289;42.688;23.330;2023-06-26T01:44:27;19.20;99.90
46562;DHT22;32289;42.688;23.330;2023-06-26T01:48:10;19.20;99.90
46562;DHT22;32289;42.688;23.330;2023-06-26T01:55:54;19.10;99.90
46562;DHT22;32289;42.688;23.330;2023-06-26T01:59:37;19.10;99.90
46562;DHT22;32289;42.688;23.330;2023-06-26T02:03:19;19.10;99.90
46562;DHT22;32289;42.688;23.330;2023-06-26T02:07:00;19.10;99.90
46562;DHT22;32289;42.688;23.330;2023-06-26T02:10:41;19.10;99.90
46562;DHT22;32289;42.688;23.330;2023-06-26T02:14:22;19.10;99.90
46562;DHT22;32289;42.688;23.330;2023-06-26T02:18:02;19.00;99.90
46562;DHT22;32289;42.688;23.330;2023-06-26T02:21:43;19.00;99.90
46562;DHT22;32289;42.688;23.330;2023-06-26T02:25:24;19.00;99.90
46562;DHT22;32289;42.688;23.330;2023-06-26T02:29:04;18.90;99.90
46562;DHT22;32289;42.688;23.330;2023-06-26T02:32:45;19.00;99.90
46562;DHT22;32289;42.688;23.330;2023-06-26T02:36:26;18.90;99.90
46562;DHT22;32289;42.688;23.330;2023-06-26T02:40:06;19.00;99.90
46562;DHT22;32289;42.688;23.330;2023-06-26T02:43:48;18.80;99.90
46562;DHT22;32289;42.688;23.330;2023-06-26T02:47:29;18.90;99.90
46562;DHT22;32289;42.688;23.330;2023-06-26T02:51:10;18.90;99.90
46562;DHT22;32289;42.688;23.330;2023-06-26T02:54:50;18.80;99.90
46562;DHT22;32289;42.688;23.330;2023-06-26T02:58:31;18.80;99.90
46562;DHT22;32289;42.688;23.330;2023-06-26T03:02:12;18.80;99.90
46562;DHT22;32289;42.688;23.330;2023-06-26T03:05:52;18.80;99.90
46562;DHT22;32289;42.688;23.330;2023-06-26T03:09:33;18.80;99.90
46562;DHT22;32289;42.688;23.330;2023-06-26T03:13:14;18.80;99.90
46562;DHT22;32289;42.688;23.330;2023-06-26T03:16:54;18.80;99.90
46562;DHT22;32289;42.688;23.330;2023-06-26T03:20:38;18.80;99.90
46562;DHT22;32289;42.688;23.330;2023-06-26T03:24:18;18.80;99.90
46562;DHT22;32289;42.688;23.330;2023-06-26T03:27:59;18.90;99.90
46562;DHT22;32289;42.688;23.330;2023-06-26T03:31:40;18.90;99.90
46562;DHT22;32289;42.688;23.330;2023-06-26T03:35:20;18.90;99.90
46562;DHT22;32289;42.688;23.330;2023-06-26T03:39:01;18.90;99.90
46562;DHT22;32289;42.688;23.330;2023-06-26T03:42:43;19.10;99.90
46562;DHT22;32289;42.688;23.330;2023-06-26T03:46:24;19.10;99.90
46562;DHT22;32289;42.688;23.330;2023-06-26T03:50:05;19.00;99.90
46562;DHT22;32289;42.688;23.330;2023-06-26T03:53:46;19.00;99.90
46562;DHT22;32289;42.688;23.330;2023-06-26T03:57:26;19.00;99.90
46562;DHT22;32289;42.688;23.330;2023-06-26T04:01:07;19.10;99.90
46562;DHT22;32289;42.688;23.330;2023-06-26T04:04:48;19.30;99.90
46562;DHT22;32289;42.688;23.330;2023-06-26T04:08:28;20.00;99.90
46562;DHT22;32289;42.688;23.330;2023-06-26T04:12:09;21.60;99.90
46562;DHT22;32289;42.688;23.330;2023-06-26T04:15:50;22.30;99.90
46562;DHT22;32289;42.688;23.330;2023-06-26T04:19:30;23.10;99.90
46562;DHT22;32289;42.688;23.330;2023-06-26T04:23:11;22.80;99.90
46562;DHT22;32289;42.688;23.330;2023-06-26T04:26:52;21.30;99.90
46562;DHT22;32289;42.688;23.330;2023-06-26T04:30:33;21.60;99.90
46562;DHT22;32289;42.688;23.330;2023-06-26T04:34:13;22.60;99.90
46562;DHT22;32289;42.688;23.330;2023-06-26T04:37:54;23.10;99.60
46562;DHT22;32289;42.688;23.330;2023-06-26T04:41:35;22.00;99.90
46562;DHT22;32289;42.688;23.330;2023-06-26T04:45:15;21.80;99.90
46562;DHT22;32289;42.688;23.330;2023-06-26T04:48:56;21.70;99.90
46562;DHT22;32289;42.688;23.330;2023-06-26T04:52:38;22.80;99.70
46562;DHT22;32289;42.688;23.330;2023-06-26T04:56:19;23.80;97.40
46562;DHT22;32289;42.688;23.330;2023-06-26T04:59:59;22.80;99.30
46562;DHT22;32289;42.688;23.330;2023-06-26T05:03:40;21.60;99.90
46562;DHT22;32289;42.688;23.330;2023-06-26T05:07:21;21.10;99.90
46562;DHT22;32289;42.688;23.330;2023-06-26T05:11:01;21.00;99.90
46562;DHT22;32289;42.688;23.330;2023-06-26T05:14:42;20.80;99.90
46562;DHT22;32289;42.688;23.330;2023-06-26T05:18:22;20.80;99.90
46562;DHT22;32289;42.688;23.330;2023-06-26T05:22:03;20.70;99.90
46562;DHT22;32289;42.688;23.330;2023-06-26T05:25:47;20.60;99.90
46562;DHT22;32289;42.688;23.330;2023-06-26T05:29:32;20.70;99.90
46562;DHT22;32289;42.688;23.330;2023-06-26T05:33:14;21.10;99.90
46562;DHT22;32289;42.688;23.330;2023-06-26T05:36:58;21.20;99.90
46562;DHT22;32289;42.688;23.330;2023-06-26T05:40:43;21.50;99.90
46562;DHT22;32289;42.688;23.330;2023-06-26T05:44:23;21.30;99.90
46562;DHT22;32289;42.688;23.330;2023-06-26T05:48:04;21.70;99.90
46562;DHT22;32289;42.688;23.330;2023-06-26T05:51:45;21.50;99.90
46562;DHT22;32289;42.688;23.330;2023-06-26T05:55:26;21.40;99.90
46562;DHT22;32289;42.688;23.330;2023-06-26T05:59:07;21.90;99.90
46562;DHT22;32289;42.688;23.330;2023-06-26T06:02:48;21.80;99.90
46562;DHT22;32289;42.688;23.330;2023-06-26T06:06:29;21.70;99.90
46562;DHT22;32289;42.688;23.330;2023-06-26T06:10:10;22.70;99.90
46562;DHT22;32289;42.688;23.330;2023-06-26T06:13:50;22.70;99.90
46562;DHT22;32289;42.688;23.330;2023-06-26T06:17:31;22.60;99.90
46562;DHT22;32289;42.688;23.330;2023-06-26T06:21:12;22.50;99.70
46562;DHT22;32289;42.688;23.330;2023-06-26T06:24:53;23.00;99.70
46562;DHT22;32289;42.688;23.330;2023-06-26T06:28:33;23.00;98.90
46562;DHT22;32289;42.688;23.330;2023-06-26T06:32:14;24.30;96.70
46562;DHT22;32289;42.688;23.330;2023-06-26T06:35:55;25.30;92.70
46562;DHT22;32289;42.688;23.330;2023-06-26T06:39:35;24.80;93.90
46562;DHT22;32289;42.688;23.330;2023-06-26T06:43:16;24.70;92.10
46562;DHT22;32289;42.688;23.330;2023-06-26T06:46:57;24.40;92.80
46562;DHT22;32289;42.688;23.330;2023-06-26T06:50:37;24.70;92.50
46562;DHT22;32289;42.688;23.330;2023-06-26T06:54:18;24.90;91.30
46562;DHT22;32289;42.688;23.330;2023-06-26T06:58:00;25.50;90.00
46562;DHT22;32289;42.688;23.330;2023-06-26T07:01:41;25.80;87.60
46562;DHT22;32289;42.688;23.330;2023-06-26T07:05:21;26.20;85.60
46562;DHT22;32289;42.688;23.330;2023-06-26T07:09:02;26.50;78.60
46562;DHT22;32289;42.688;23.330;2023-06-26T07:12:43;26.40;81.40
46562;DHT22;32289;42.688;23.330;2023-06-26T07:16:25;26.30;81.60
46562;DHT22;32289;42.688;23.330;2023-06-26T07:20:06;27.10;75.90
46562;DHT22;32289;42.688;23.330;2023-06-26T07:23:49;25.50;78.80
46562;DHT22;32289;42.688;23.330;2023-06-26T07:27:29;25.10;82.50
46562;DHT22;32289;42.688;23.330;2023-06-26T07:31:11;24.50;89.00
46562;DHT22;32289;42.688;23.330;2023-06-26T07:34:51;24.00;89.80
46562;DHT22;32289;42.688;23.330;2023-06-26T07:38:32;24.10;89.80
46562;DHT22;32289;42.688;23.330;2023-06-26T07:42:13;24.30;89.20
46562;DHT22;32289;42.688;23.330;2023-06-26T07:45:53;23.80;87.60
46562;DHT22;32289;42.688;23.330;2023-06-26T07:49:34;25.00;85.90
46562;DHT22;32289;42.688;23.330;2023-06-26T07:53:15;25.80;76.70
46562;DHT22;32289;42.688;23.330;2023-06-26T07:56:58;24.20;82.30
46562;DHT22;32289;42.688;23.330;2023-06-26T08:00:40;26.70;74.20
46562;DHT22;32289;42.688;23.330;2023-06-26T08:04:23;27.20;71.50
46562;DHT22;32289;42.688;23.330;2023-06-26T08:08:04;26.60;74.80
46562;DHT22;32289;42.688;23.330;2023-06-26T08:11:45;28.00;69.20
46562;DHT22;32289;42.688;23.330;2023-06-26T08:15:25;27.80;69.10
46562;DHT22;32289;42.688;23.330;2023-06-26T08:19:07;26.90;69.50
46562;DHT22;32289;42.688;23.330;2023-06-26T08:22:48;25.20;76.20
46562;DHT22;32289;42.688;23.330;2023-06-26T08:26:30;26.70;73.70
46562;DHT22;32289;42.688;23.330;2023-06-26T08:30:11;27.90;67.10
46562;DHT22;32289;42.688;23.330;2023-06-26T08:33:52;27.90;67.10
46562;DHT22;32289;42.688;23.330;2023-06-26T08:37:33;25.50;74.90
46562;DHT22;32289;42.688;23.330;2023-06-26T08:41:13;25.50;77.30
46562;DHT22;32289;42.688;23.330;2023-06-26T08:44:54;28.10;70.20
46562;DHT22;32289;42.688;23.330;2023-06-26T08:48:35;27.10;70.30
46562;DHT22;32289;42.688;23.330;2023-06-26T08:52:22;26.80;70.00
46562;DHT22;32289;42.688;23.330;2023-06-26T08:56:04;25.70;72.20
46562;DHT22;32289;42.688;23.330;2023-06-26T08:59:47;25.90;73.00
46562;DHT22;32289;42.688;23.330;2023-06-26T09:03:28;25.30;74.50
46562;DHT22;32289;42.688;23.330;2023-06-26T09:07:09;27.00;68.70
46562;DHT22;32289;42.688;23.330;2023-06-26T09:10:50;30.00;62.30
46562;DHT22;32289;42.688;23.330;2023-06-26T09:14:32;27.90;62.40
46562;DHT22;32289;42.688;23.330;2023-06-26T09:18:13;27.00;67.40
46562;DHT22;32289;42.688;23.330;2023-06-26T09:21:57;27.00;66.90
46562;DHT22;32289;42.688;23.330;2023-06-26T09:25:39;27.10;65.80
46562;DHT22;32289;42.688;23.330;2023-06-26T09:29:20;26.60;69.10
46562;DHT22;32289;42.688;23.330;2023-06-26T09:33:15;29.20;61.60
46562;DHT22;32289;42.688;23.330;2023-06-26T09:36:56;27.40;65.20
46562;DHT22;32289;42.688;23.330;2023-06-26T09:40:36;26.10;68.90
46562;DHT22;32289;42.688;23.330;2023-06-26T09:44:18;25.20;71.10
46562;DHT22;32289;42.688;23.330;2023-06-26T09:48:00;25.80;69.10
46562;DHT22;32289;42.688;23.330;2023-06-26T09:51:43;26.00;68.40
46562;DHT22;32289;42.688;23.330;2023-06-26T09:55:24;27.00;65.30
46562;DHT22;32289;42.688;23.330;2023-06-26T09:59:05;29.20;59.50
46562;DHT22;32289;42.688;23.330;2023-06-26T10:02:46;27.80;62.90
46562;DHT22;32289;42.688;23.330;2023-06-26T10:06:39;26.10;66.30
46562;DHT22;32289;42.688;23.330;2023-06-26T10:10:23;25.20;68.60
46562;DHT22;32289;42.688;23.330;2023-06-26T10:14:07;24.80;69.50
46562;DHT22;32289;42.688;23.330;2023-06-26T10:17:49;24.60;70.10
46562;DHT22;32289;42.688;23.330;2023-06-26T10:21:33;25.20;69.20
46562;DHT22;32289;42.688;23.330;2023-06-26T10:25:18;25.00;69.40
46562;DHT22;32289;42.688;23.330;2023-06-26T10:29:03;24.90;69.50
46562;DHT22;32289;42.688;23.330;2023-06-26T10:32:45;24.90;70.10
46562;DHT22;32289;42.688;23.330;2023-06-26T10:36:29;24.50;68.50
46562;DHT22;32289;42.688;23.330;2023-06-26T10:40:11;24.40;68.20
46562;DHT22;32289;42.688;23.330;2023-06-26T10:47:46;24.20;68.50
46562;DHT22;32289;42.688;23.330;2023-06-26T10:51:27;24.60;69.80
46562;DHT22;32289;42.688;23.330;2023-06-26T10:55:08;24.80;67.50
46562;DHT22;32289;42.688;23.330;2023-06-26T10:58:49;24.70;68.20
46562;DHT22;32289;42.688;23.330;2023-06-26T11:02:47;24.90;69.70
46562;DHT22;32289;42.688;23.330;2023-06-26T11:06:28;25.40;67.20
46562;DHT22;32289;42.688;23.330;2023-06-26T11:10:09;25.30;69.20
46562;DHT22;32289;42.688;23.330;2023-06-26T11:13:50;25.30;67.30
46562;DHT22;32289;42.688;23.330;2023-06-26T11:17:32;25.40;69.10
46562;DHT22;32289;42.688;23.330;2023-06-26T11:21:13;25.80;67.10
46562;DHT22;32289;42.688;23.330;2023-06-26T11:24:55;25.70;66.20
46562;DHT22;32289;42.688;23.330;2023-06-26T11:28:49;25.80;67.10
46562;DHT22;32289;42.688;23.330;2023-06-26T11:32:30;25.20;66.80
46562;DHT22;32289;42.688;23.330;2023-06-26T11:36:13;24.90;69.40
46562;DHT22;32289;42.688;23.330;2023-06-26T11:39:53;24.90;69.10
46562;DHT22;32289;42.688;23.330;2023-06-26T11:43:34;25.00;67.20
46562;DHT22;32289;42.688;23.330;2023-06-26T11:47:20;25.00;66.30
46562;DHT22;32289;42.688;23.330;2023-06-26T11:51:04;25.30;66.30
46562;DHT22;32289;42.688;23.330;2023-06-26T11:54:45;25.10;66.20
46562;DHT22;32289;42.688;23.330;2023-06-26T11:58:27;26.50;65.00
46562;DHT22;32289;42.688;23.330;2023-06-26T12:02:09;27.30;62.80
46562;DHT22;32289;42.688;23.330;2023-06-26T12:05:50;27.70;62.80
46562;DHT22;32289;42.688;23.330;2023-06-26T12:09:38;27.40;62.60
46562;DHT22;32289;42.688;23.330;2023-06-26T12:13:21;26.50;62.70
46562;DHT22;32289;42.688;23.330;2023-06-26T12:17:08;26.60;63.20
46562;DHT22;32289;42.688;23.330;2023-06-26T12:20:48;26.50;63.60
46562;DHT22;32289;42.688;23.330;2023-06-26T12:24:29;26.30;63.30
46562;DHT22;32289;42.688;23.330;2023-06-26T12:28:17;26.50;62.30
46562;DHT22;32289;42.688;23.330;2023-06-26T12:31:58;26.30;63.40
46562;DHT22;32289;42.688;23.330;2023-06-26T12:35:39;25.90;64.10
46562;DHT22;32289;42.688;23.330;2023-06-26T12:39:20;25.90;64.80
46562;DHT22;32289;42.688;23.330;2023-06-26T12:43:02;25.60;64.70
46562;DHT22;32289;42.688;23.330;2023-06-26T12:46:43;25.50;65.90
46562;DHT22;32289;42.688;23.330;2023-06-26T12:50:24;25.20;67.00
46562;DHT22;32289;42.688;23.330;2023-06-26T12:54:04;25.10;68.00
46562;DHT22;32289;42.688;23.330;2023-06-26T12:57:45;25.30;68.80
46562;DHT22;32289;42.688;23.330;2023-06-26T13:01:26;25.20;68.80
46562;DHT22;32289;42.688;23.330;2023-06-26T13:05:07;24.90;70.20
46562;DHT22;32289;42.688;23.330;2023-06-26T13:08:48;24.90;71.50
46562;DHT22;32289;42.688;23.330;2023-06-26T13:12:29;25.30;70.10
46562;DHT22;32289;42.688;23.330;2023-06-26T13:16:09;25.70;69.50
46562;DHT22;32289;42.688;23.330;2023-06-26T13:19:50;25.90;67.30
46562;DHT22;32289;42.688;23.330;2023-06-26T13:23:31;25.60;68.50
46562;DHT22;32289;42.688;23.330;2023-06-26T13:27:11;25.10;70.10
46562;DHT22;32289;42.688;23.330;2023-06-26T13:30:52;25.20;72.00
46562;DHT22;32289;42.688;23.330;2023-06-26T13:34:33;25.50;69.90
46562;DHT22;32289;42.688;23.330;2023-06-26T13:38:15;25.50;68.30
46562;DHT22;32289;42.688;23.330;2023-06-26T13:41:55;25.40;69.00
46562;DHT22;32289;42.688;23.330;2023-06-26T13:45:36;25.40;69.50
46562;DHT22;32289;42.688;23.330;2023-06-26T13:49:17;25.70;68.80
46562;DHT22;32289;42.688;23.330;2023-06-26T13:52:57;25.90;67.50
46562;DHT22;32289;42.688;23.330;2023-06-26T13:56:38;25.30;68.40
46562;DHT22;32289;42.688;23.330;2023-06-26T14:00:19;25.10;69.50
46562;DHT22;32289;42.688;23.330;2023-06-26T14:04:02;25.10;71.10
46562;DHT22;32289;42.688;23.330;2023-06-26T14:07:43;25.30;70.20
46562;DHT22;32289;42.688;23.330;2023-06-26T14:11:24;25.60;70.80
46562;DHT22;32289;42.688;23.330;2023-06-26T14:15:06;26.20;68.60
46562;DHT22;32289;42.688;23.330;2023-06-26T14:18:47;26.30;66.50
46562;DHT22;32289;42.688;23.330;2023-06-26T14:22:28;26.50;66.70
46562;DHT22;32289;42.688;23.330;2023-06-26T14:26:08;26.70;65.80
46562;DHT22;32289;42.688;23.330;2023-06-26T14:29:49;26.40;68.30
46562;DHT22;32289;42.688;23.330;2023-06-26T14:33:30;25.90;69.00
46562;DHT22;32289;42.688;23.330;2023-06-26T14:37:10;25.80;70.90
46562;DHT22;32289;42.688;23.330;2023-06-26T14:40:51;25.10;75.80
46562;DHT22;32289;42.688;23.330;2023-06-26T14:44:32;24.40;82.10
46562;DHT22;32289;42.688;23.330;2023-06-26T14:48:13;23.70;90.00
46562;DHT22;32289;42.688;23.330;2023-06-26T14:51:54;23.00;98.40
46562;DHT22;32289;42.688;23.330;2023-06-26T14:55:35;22.60;98.00
46562;DHT22;32289;42.688;23.330;2023-06-26T14:59:15;22.50;99.90
46562;DHT22;32289;42.688;23.330;2023-06-26T15:02:56;22.20;99.90
46562;DHT22;32289;42.688;23.330;2023-06-26T15:06:38;21.90;99.90
46562;DHT22;32289;42.688;23.330;2023-06-26T15:10:19;21.70;99.90
46562;DHT22;32289;42.688;23.330;2023-06-26T15:14:01;21.60;99.90
46562;DHT22;32289;42.688;23.330;2023-06-26T15:17:42;21.50;99.90
46562;DHT22;32289;42.688;23.330;2023-06-26T15:21:23;21.40;99.90
46562;DHT22;32289;42.688;23.330;2023-06-26T15:25:04;21.50;99.90
46562;DHT22;32289;42.688;23.330;2023-06-26T15:28:45;21.10;99.90
46562;DHT22;32289;42.688;23.330;2023-06-26T15:32:25;21.60;99.90
46562;DHT22;32289;42.688;23.330;2023-06-26T15:36:06;21.90;99.90
46562;DHT22;32289;42.688;23.330;2023-06-26T15:39:47;21.60;99.90
46562;DHT22;32289;42.688;23.330;2023-06-26T15:43:27;21.20;99.90
46562;DHT22;32289;42.688;23.330;2023-06-26T15:47:08;21.40;99.90
46562;DHT22;32289;42.688;23.330;2023-06-26T15:50:49;21.40;99.90
46562;DHT22;32289;42.688;23.330;2023-06-26T15:54:29;21.30;99.90
46562;DHT22;32289;42.688;23.330;2023-06-26T15:58:10;21.80;99.90
46562;DHT22;32289;42.688;23.330;2023-06-26T16:01:51;21.80;99.90
46562;DHT22;32289;42.688;23.330;2023-06-26T16:05:31;21.90;99.90
46562;DHT22;32289;42.688;23.330;2023-06-26T16:09:12;21.70;99.90
46562;DHT22;32289;42.688;23.330;2023-06-26T16:12:53;21.60;99.90
46562;DHT22;32289;42.688;23.330;2023-06-26T16:16:33;21.60;99.90
46562;DHT22;32289;42.688;23.330;2023-06-26T16:20:14;21.50;99.90
46562;DHT22;32289;42.688;23.330;2023-06-26T16:23:55;21.50;99.90
46562;DHT22;32289;42.688;23.330;2023-06-26T16:27:36;21.40;99.90
46562;DHT22;32289;42.688;23.330;2023-06-26T16:31:17;21.30;99.90
46562;DHT22;32289;42.688;23.330;2023-06-26T16:34:58;21.50;99.90
46562;DHT22;32289;42.688;23.330;2023-06-26T16:38:39;21.50;99.90
46562;DHT22;32289;42.688;23.330;2023-06-26T16:42:21;21.30;99.90
46562;DHT22;32289;42.688;23.330;2023-06-26T16:46:02;21.30;99.90
46562;DHT22;32289;42.688;23.330;2023-06-26T16:49:43;21.20;99.90
46562;DHT22;32289;42.688;23.330;2023-06-26T16:53:24;21.20;99.90
46562;DHT22;32289;42.688;23.330;2023-06-26T16:57:05;21.20;99.90
46562;DHT22;32289;42.688;23.330;2023-06-26T17:00:46;21.10;99.90
46562;DHT22;32289;42.688;23.330;2023-06-26T17:04:27;21.10;99.90
46562;DHT22;32289;42.688;23.330;2023-06-26T17:08:08;20.70;99.90
46562;DHT22;32289;42.688;23.330;2023-06-26T17:11:51;20.70;99.90
46562;DHT22;32289;42.688;23.330;2023-06-26T17:15:32;20.80;99.90
46562;DHT22;32289;42.688;23.330;2023-06-26T17:19:13;20.70;99.90
46562;DHT22;32289;42.688;23.330;2023-06-26T17:22:54;20.70;99.90
46562;DHT22;32289;42.688;23.330;2023-06-26T17:26:34;20.40;99.90
46562;DHT22;32289;42.688;23.330;2023-06-26T17:30:15;20.30;99.90
46562;DHT22;32289;42.688;23.330;2023-06-26T17:33:58;20.30;99.90
46562;DHT22;32289;42.688;23.330;2023-06-26T17:37:38;20.60;99.90
46562;DHT22;32289;42.688;23.330;2023-06-26T17:41:19;20.90;99.90
46562;DHT22;32289;42.688;23.330;2023-06-26T17:45:00;20.60;99.90
46562;DHT22;32289;42.688;23.330;2023-06-26T17:48:40;20.30;99.90
46562;DHT22;32289;42.688;23.330;2023-06-26T17:52:21;20.50;99.90
46562;DHT22;32289;42.688;23.330;2023-06-26T17:56:02;20.60;99.90
46562;DHT22;32289;42.688;23.330;2023-06-26T17:59:43;20.50;99.90
46562;DHT22;32289;42.688;23.330;2023-06-26T18:03:23;20.50;99.90
46562;DHT22;32289;42.688;23.330;2023-06-26T18:07:04;20.20;99.90
46562;DHT22;32289;42.688;23.330;2023-06-26T18:10:45;20.20;99.90
46562;DHT22;32289;42.688;23.330;2023-06-26T18:14:26;20.00;99.90
46562;DHT22;32289;42.688;23.330;2023-06-26T18:18:06;20.00;99.90
46562;DHT22;32289;42.688;23.330;2023-06-26T18:21:47;19.80;99.90
46562;DHT22;32289;42.688;23.330;2023-06-26T18:25:28;20.10;99.90
46562;DHT22;32289;42.688;23.330;2023-06-26T18:29:09;20.00;99.90
46562;DHT22;32289;42.688;23.330;2023-06-26T18:32:49;19.80;99.90
46562;DHT22;32289;42.688;23.330;2023-06-26T18:36:30;19.70;99.90
46562;DHT22;32289;42.688;23.330;2023-06-26T18:40:11;19.60;99.90
46562;DHT22;32289;42.688;23.330;2023-06-26T18:43:55;19.80;99.90
46562;DHT22;32289;42.688;23.330;2023-06-26T18:47:35;19.70;99.90
46562;DHT22;32289;42.688;23.330;2023-06-26T18:51:16;19.70;99.90
46562;DHT22;32289;42.688;23.330;2023-06-26T18:54:57;19.90;99.90
46562;DHT22;32289;42.688;23.330;2023-06-26T18:58:37;19.90;99.90
46562;DHT22;32289;42.688;23.330;2023-06-26T19:02:18;20.10;99.90
46562;DHT22;32289;42.688;23.330;2023-06-26T19:05:59;20.00;99.90
46562;DHT22;32289;42.688;23.330;2023-06-26T19:09:39;20.10;99.90
46562;DHT22;32289;42.688;23.330;2023-06-26T19:13:20;20.20;99.90
46562;DHT22;32289;42.688;23.330;2023-06-26T19:17:01;20.10;99.90
46562;DHT22;32289;42.688;23.330;2023-06-26T19:20:42;20.30;99.90
46562;DHT22;32289;42.688;23.330;2023-06-26T19:24:22;20.30;99.90
46562;DHT22;32289;42.688;23.330;2023-06-26T19:28:03;20.40;99.90
46562;DHT22;32289;42.688;23.330;2023-06-26T19:31:44;20.30;99.90
46562;DHT22;32289;42.688;23.330;2023-06-26T19:35:24;20.30;99.90
46562;DHT22;32289;42.688;23.330;2023-06-26T19:39:05;20.20;99.90
46562;DHT22;32289;42.688;23.330;2023-06-26T19:42:46;20.20;99.90
46562;DHT22;32289;42.688;23.330;2023-06-26T19:46:26;20.10;99.90
46562;DHT22;32289;42.688;23.330;2023-06-26T19:50:08;20.00;99.90
46562;DHT22;32289;42.688;23.330;2023-06-26T19:53:48;20.00;99.90
46562;DHT22;32289;42.688;23.330;2023-06-26T19:57:29;19.80;99.90
46562;DHT22;32289;42.688;23.330;2023-06-26T20:01:10;19.60;99.90
46562;DHT22;32289;42.688;23.330;2023-06-26T20:04:51;19.60;99.90
46562;DHT22;32289;42.688;23.330;2023-06-26T20:08:32;19.60;99.90
46562;DHT22;32289;42.688;23.330;2023-06-26T20:12:12;19.40;99.90
46562;DHT22;32289;42.688;23.330;2023-06-26T20:15:53;19.40;99.90
46562;DHT22;32289;42.688;23.330;2023-06-26T20:19:34;19.40;99.90
46562;DHT22;32289;42.688;23.330;2023-06-26T20:23:15;19.60;99.90
46562;DHT22;32289;42.688;23.330;2023-06-26T20:26:55;19.80;99.90
46562;DHT22;32289;42.688;23.330;2023-06-26T20:30:36;19.90;99.90
46562;DHT22;32289;42.688;23.330;2023-06-26T20:34:17;19.80;99.90
46562;DHT22;32289;42.688;23.330;2023-06-26T20:37:58;19.70;99.90
46562;DHT22;32289;42.688;23.330;2023-06-26T20:41:39;19.70;99.90
46562;DHT22;32289;42.688;23.330;2023-06-26T20:45:20;19.70;99.90
46562;DHT22;32289;42.688;23.330;2023-06-26T20:49:02;19.50;99.90
46562;DHT22;32289;42.688;23.330;2023-06-26T20:52:43;19.20;99.90
46562;DHT22;32289;42.688;23.330;2023-06-26T20:56:24;19.10;99.90
46562;DHT22;32289;42.688;23.330;2023-06-26T21:00:09;19.00;99.90
46562;DHT22;32289;42.688;23.330;2023-06-26T21:03:52;19.00;99.90
46562;DHT22;32289;42.688;23.330;2023-06-26T21:07:32;18.90;99.90
46562;DHT22;32289;42.688;23.330;2023-06-26T21:11:13;19.00;99.90
46562;DHT22;32289;42.688;23.330;2023-06-26T21:14:54;19.00;99.90
46562;DHT22;32289;42.688;23.330;2023-06-26T21:18:35;19.00;99.90
46562;DHT22;32289;42.688;23.330;2023-06-26T21:22:15;18.90;99.90
46562;DHT22;32289;42.688;23.330;2023-06-26T21:25:57;18.90;99.90
46562;DHT22;32289;42.688;23.330;2023-06-26T21:29:38;18.90;99.90
46562;DHT22;32289;42.688;23.330;2023-06-26T21:33:18;18.90;99.90
46562;DHT22;32289;42.688;23.330;2023-06-26T21:36:59;19.00;99.90
46562;DHT22;32289;42.688;23.330;2023-06-26T21:40:41;18.80;99.90
46562;DHT22;32289;42.688;23.330;2023-06-26T21:44:22;18.70;99.90
46562;DHT22;32289;42.688;23.330;2023-06-26T21:48:03;18.70;99.90
46562;DHT22;32289;42.688;23.330;2023-06-26T21:51:43;18.70;99.90
46562;DHT22;32289;42.688;23.330;2023-06-26T21:55:24;18.80;99.90
46562;DHT22;32289;42.688;23.330;2023-06-26T21:59:05;18.80;99.90
46562;DHT22;32289;42.688;23.330;2023-06-26T22:02:45;18.80;99.90
46562;DHT22;32289;42.688;23.330;2023-06-26T22:06:26;18.60;99.90
46562;DHT22;32289;42.688;23.330;2023-06-26T22:10:07;18.60;99.90
46562;DHT22;32289;42.688;23.330;2023-06-26T22:13:48;18.70;99.90
46562;DHT22;32289;42.688;23.330;2023-06-26T22:17:29;18.60;99.90
46562;DHT22;32289;42.688;23.330;2023-06-26T22:21:13;18.50;99.90
46562;DHT22;32289;42.688;23.330;2023-06-26T22:24:53;18.60;99.90
46562;DHT22;32289;42.688;23.330;2023-06-26T22:28:34;18.60;99.90
46562;DHT22;32289;42.688;23.330;2023-06-26T22:32:15;18.50;99.90
46562;DHT22;32289;42.688;23.330;2023-06-26T22:35:56;18.40;99.90
46562;DHT22;32289;42.688;23.330;2023-06-26T22:39:37;18.40;99.90
46562;DHT22;32289;42.688;23.330;2023-06-26T22:43:19;18.40;99.90
46562;DHT22;32289;42.688;23.330;2023-06-26T22:47:00;18.40;99.90
46562;DHT22;32289;42.688;23.330;2023-06-26T22:50:40;18.30;99.90
46562;DHT22;32289;42.688;23.330;2023-06-26T22:54:22;18.40;99.90
46562;DHT22;32289;42.688;23.330;2023-06-26T22:58:02;18.30;99.90
46562;DHT22;32289;42.688;23.330;2023-06-26T23:01:44;18.20;99.90